Time;durP1;ratioP1;P1;durP2;ratioP2;P2;SDS_P1;SDS_P2;PMS_P1;PMS_P2;Temp;Humidity;BMP_temperature;BMP_pressure;BME280_temperature;BME280_humidity;BME280_pressure;Samples;Min_cycle;Max_cycle;Signal;HPM_P1;HPM_P2
2021/11/26 00:01:18;;;;;;;24.30;15.90;;;;;;;-4.14;100.00;101672.72;1817507;77;21012;-84
2021/11/26 00:03:46;;;;;;;25.72;16.52;;;;;;;-4.15;100.00;101673.16;1818049;77;21029;-85
2021/11/26 00:06:14;;;;;;;24.80;16.45;;;;;;;-4.12;100.00;101674.41;1817679;77;21585;-83
2021/11/26 00:08:41;;;;;;;26.68;17.32;;;;;;;-4.09;100.00;101673.59;1805145;77;21894;-86
2021/11/26 00:11:09;;;;;;;26.27;16.30;;;;;;;-4.08;100.00;101665.53;1785232;80;21021;-84
2021/11/26 00:13:42;;;;;;;25.27;16.40;;;;;;;-4.09;100.00;101663.83;1785965;79;21052;-83
2021/11/26 00:16:14;;;;;;;26.10;17.27;;;;;;;-4.17;100.00;101660.01;1782383;80;21025;-84
2021/11/26 00:19:04;;;;;;;26.87;16.27;;;;;;;-4.22;100.00;101658.72;1782882;80;21471;-82
2021/11/26 00:21:09;;;;;;;23.25;15.32;;;;;;;-4.24;100.00;101654.05;1794877;77;22056;-83
2021/11/26 00:23:37;;;;;;;26.15;15.63;;;;;;;-4.24;100.00;101646.41;1793386;78;21072;-83
2021/11/26 00:26:05;;;;;;;22.02;14.87;;;;;;;-4.23;100.00;101640.89;1818353;78;21060;-83
2021/11/26 00:28:33;;;;;;;23.18;14.90;;;;;;;-4.22;100.00;101646.00;1818395;78;20946;-83
2021/11/26 00:31:00;;;;;;;28.80;16.62;;;;;;;-4.19;100.00;101642.61;1818381;78;21048;-83
2021/11/26 00:33:27;;;;;;;30.88;15.30;;;;;;;-4.17;100.00;101639.22;1818472;77;21915;-83
2021/11/26 00:35:55;;;;;;;22.40;14.20;;;;;;;-4.14;100.00;101639.23;1818420;78;21033;-83
2021/11/26 00:38:22;;;;;;;26.20;14.58;;;;;;;-4.12;100.00;101637.52;1793062;78;21048;-84
2021/11/26 00:40:49;;;;;;;24.12;15.23;;;;;;;-4.09;100.00;101632.03;1818464;78;21534;-83
2021/11/26 00:43:17;;;;;;;23.75;16.15;;;;;;;-4.12;100.00;101631.16;1818620;77;21033;-83
2021/11/26 00:45:44;;;;;;;21.77;14.53;;;;;;;-4.14;100.00;101630.34;1818773;78;21159;-84
2021/11/26 00:48:14;;;;;;;20.85;14.55;;;;;;;-4.16;100.00;101620.57;1818621;78;21025;-84
2021/11/26 00:50:43;;;;;;;21.68;14.58;;;;;;;-4.19;100.00;101611.65;1818836;77;21506;-86
2021/11/26 00:53:10;;;;;;;22.75;14.70;;;;;;;-4.23;100.00;101609.95;1792963;77;21052;-84
2021/11/26 00:55:38;;;;;;;20.77;13.53;;;;;;;-4.29;100.00;101606.97;1818773;77;21045;-83
2021/11/26 00:58:05;;;;;;;21.40;13.80;;;;;;;-4.34;100.00;101609.07;1818606;78;21476;-83
2021/11/26 01:00:32;;;;;;;21.05;13.28;;;;;;;-4.37;100.00;101606.09;1793268;78;21012;-84
2021/11/26 01:03:00;;;;;;;20.37;13.83;;;;;;;-4.38;100.00;101604.83;1818412;77;21691;-83
2021/11/26 01:05:27;;;;;;;20.60;13.20;;;;;;;-4.39;100.00;101600.59;1818716;78;21010;-84
2021/11/26 01:07:54;;;;;;;26.12;15.93;;;;;;;-4.38;100.00;101589.14;1815959;78;21077;-83
2021/11/26 01:10:24;;;;;;;34.40;20.52;;;;;;;-4.37;100.00;101573.48;1816628;79;21924;-83
2021/11/26 01:12:53;;;;;;;42.48;23.30;;;;;;;-4.33;100.00;101568.81;1815054;79;21053;-84
2021/11/26 01:15:26;;;;;;;37.78;20.75;;;;;;;-4.33;100.00;101562.45;1812955;79;21092;-83
2021/11/26 01:18:02;;;;;;;34.20;18.30;;;;;;;-4.34;100.00;101560.75;1809265;79;21484;-83
2021/11/26 01:20:33;;;;;;;31.10;17.75;;;;;;;-4.34;100.00;101559.07;1812992;78;21017;-83
2021/11/26 01:23:02;;;;;;;27.67;15.88;;;;;;;-4.34;100.00;101556.94;1813066;79;21104;-83
2021/11/26 01:25:30;;;;;;;28.02;15.48;;;;;;;-4.32;100.00;101545.08;1812984;78;21566;-85
2021/11/26 01:27:58;;;;;;;24.92;16.00;;;;;;;-4.30;100.00;101538.30;1812969;79;21041;-84
2021/11/26 01:30:30;;;;;;;23.67;13.95;;;;;;;-4.25;100.00;101540.86;1798463;79;21006;-83
2021/11/26 01:33:04;;;;;;;19.02;12.78;;;;;;;-4.22;100.00;101546.80;1788609;79;21041;-83
2021/11/26 01:35:32;;;;;;;21.20;12.75;;;;;;;-4.12;100.00;101545.94;1778224;79;21076;-83
2021/11/26 01:38:00;;;;;;;20.97;13.03;;;;;;;-4.01;100.00;101531.97;1810557;77;21099;-84
2021/11/26 01:40:27;;;;;;;18.35;13.03;;;;;;;-3.92;100.00;101528.56;1810777;77;21045;-83
2021/11/26 01:42:57;;;;;;;18.60;13.32;;;;;;;-3.86;100.00;101529.00;1810695;77;21099;-83
2021/11/26 01:45:24;;;;;;;19.07;12.78;;;;;;;-3.83;100.00;101528.57;1810710;77;21037;-84
2021/11/26 01:47:53;;;;;;;19.23;11.83;;;;;;;-3.78;100.00;101539.16;1781905;78;21160;-85
2021/11/26 01:50:25;;;;;;;16.70;11.63;;;;;;;-3.76;100.00;101530.66;1810785;77;21016;-84
2021/11/26 01:52:54;;;;;;;17.77;12.63;;;;;;;-3.73;100.00;101542.56;1810895;78;21514;-83
2021/11/26 01:55:21;;;;;;;25.62;15.00;;;;;;;-3.71;100.00;101533.20;1810710;77;21009;-83
2021/11/26 01:57:49;;;;;;;19.67;13.90;;;;;;;-3.68;100.00;101534.48;1810687;77;21539;-84
2021/11/26 02:00:24;;;;;;;28.20;12.53;;;;;;;-3.71;100.00;101523.02;1810735;77;21946;-85
2021/11/26 02:02:51;;;;;;;20.02;13.68;;;;;;;-3.72;100.00;101527.69;1778157;79;21037;-84
2021/11/26 02:05:19;;;;;;;26.87;15.70;;;;;;;-3.75;100.00;101519.64;1810719;77;21570;-84
2021/11/26 02:07:46;;;;;;;21.55;13.25;;;;;;;-3.80;100.00;101514.55;1810819;77;21079;-84
2021/11/26 02:10:16;;;;;;;21.02;12.50;;;;;;;-3.90;100.00;101511.61;1810256;77;21040;-84
2021/11/26 02:12:44;;;;;;;18.37;13.08;;;;;;;-3.96;100.00;101510.31;1811401;77;21104;-83
2021/11/26 02:15:19;;;;;;;20.08;13.10;;;;;;;-3.98;100.00;101500.58;1814574;77;21537;-84
2021/11/26 02:17:51;;;;;;;18.05;12.85;;;;;;;-4.00;100.00;101496.75;1813046;77;22002;-84
2021/11/26 02:20:23;;;;;;;19.10;12.57;;;;;;;-4.03;100.00;101498.45;1815080;77;21511;-83
2021/11/26 02:22:53;;;;;;;18.12;12.03;;;;;;;-4.07;100.00;101500.58;1814686;77;22111;-83
2021/11/26 02:25:23;;;;;;;20.85;13.32;;;;;;;-4.09;100.00;101501.00;1789181;77;21822;-84
2021/11/26 02:27:57;;;;;;;21.20;12.33;;;;;;;-4.07;100.00;101500.58;1814076;77;21542;-84
2021/11/26 02:30:25;;;;;;;18.12;12.00;;;;;;;-4.11;100.00;101503.55;1814815;77;21298;-84
2021/11/26 02:33:00;;;;;;;24.67;12.37;;;;;;;-4.13;100.00;101505.23;1814711;77;21071;-84
2021/11/26 02:35:29;;;;;;;20.60;12.43;;;;;;;-4.15;100.00;101500.16;1788899;79;21041;-84
2021/11/26 02:37:58;;;;;;;15.80;11.88;;;;;;;-4.16;100.00;101497.19;1768039;79;21146;-83
2021/11/26 02:40:29;;;;;;;18.05;11.88;;;;;;;-4.16;100.00;101494.64;1767596;79;21030;-84
2021/11/26 02:42:58;;;;;;;21.20;13.38;;;;;;;-4.17;100.00;101492.95;1794943;79;21044;-83
2021/11/26 02:45:26;;;;;;;21.48;12.43;;;;;;;-4.21;100.00;101489.99;1767598;79;21045;-82
2021/11/26 02:47:55;;;;;;;21.57;14.75;;;;;;;-4.25;100.00;101485.73;1794871;79;21041;-82
2021/11/26 02:50:26;;;;;;;26.70;16.65;;;;;;;-4.27;100.00;101475.97;1795217;79;22074;-83
2021/11/26 02:52:57;;;;;;;23.07;14.38;;;;;;;-4.34;100.00;101466.65;1794647;79;21028;-83
2021/11/26 02:55:31;;;;;;;25.27;15.15;;;;;;;-4.41;100.00;101466.23;1794780;79;21579;-84
2021/11/26 02:57:59;;;;;;;26.02;15.30;;;;;;;-4.46;100.00;101459.45;1791422;79;21088;-83
2021/11/26 03:00:29;;;;;;;21.33;14.00;;;;;;;-4.46;100.00;101456.92;1795248;79;21021;-82
2021/11/26 03:02:58;;;;;;;22.83;13.20;;;;;;;-4.39;100.00;101460.73;1768494;79;21141;-83
2021/11/26 03:05:25;;;;;;;29.00;14.28;;;;;;;-4.35;100.00;101453.10;1794930;79;21723;-83
2021/11/26 03:07:53;;;;;;;22.50;13.80;;;;;;;-4.30;100.00;101460.30;1794569;79;21073;-84
2021/11/26 03:10:22;;;;;;;24.77;13.28;;;;;;;-4.23;100.00;101453.52;1768062;79;21057;-87
2021/11/26 03:12:59;;;;;;;24.07;14.65;;;;;;;-4.20;100.00;101453.50;1792928;79;21009;-83
2021/11/26 03:15:29;;;;;;;28.73;14.85;;;;;;;-4.13;100.00;101454.36;1806461;78;21151;-84
2021/11/26 03:17:58;;;;;;;25.23;14.75;;;;;;;-4.13;100.00;101447.56;1812824;78;21478;-82
2021/11/26 03:20:29;;;;;;;26.20;14.30;;;;;;;-4.13;100.00;101455.19;1801744;79;21504;-82
2021/11/26 03:22:58;;;;;;;25.95;16.02;;;;;;;-4.13;100.00;101455.19;1794733;80;21070;-86
2021/11/26 03:25:26;;;;;;;25.27;14.50;;;;;;;-4.10;100.00;101457.32;1770553;79;21053;-82
2021/11/26 03:27:55;;;;;;;24.82;13.93;;;;;;;-4.14;100.00;101456.07;1794810;80;21125;-82
2021/11/26 03:30:23;;;;;;;23.07;14.00;;;;;;;-4.19;100.00;101457.75;1786827;78;21021;-83
2021/11/26 03:32:53;;;;;;;24.07;14.50;;;;;;;-4.20;100.00;101461.13;1783596;79;21595;-81
2021/11/26 03:35:20;;;;;;;23.55;16.00;;;;;;;-4.25;100.00;101453.94;1783857;79;21061;-83
2021/11/26 03:37:48;;;;;;;24.00;16.42;;;;;;;-4.32;100.00;101454.35;1766433;79;21014;-81
2021/11/26 03:40:19;;;;;;;35.05;15.38;;;;;;;-4.36;100.00;101451.81;1753202;79;21134;-84
2021/11/26 03:42:47;;;;;;;29.35;15.90;;;;;;;-4.38;100.00;101457.34;1752115;81;21160;-83
2021/11/26 03:45:18;;;;;;;32.95;16.60;;;;;;;-4.33;100.00;101458.18;1752545;80;21104;-83
2021/11/26 03:47:48;;;;;;;26.25;16.07;;;;;;;-4.20;100.00;101459.86;1752305;81;21029;-84
2021/11/26 03:50:15;;;;;;;23.32;15.78;;;;;;;-4.10;100.00;101452.23;1725175;81;21100;-85
2021/11/26 03:52:43;;;;;;;23.77;15.68;;;;;;;-4.11;100.00;101447.58;1729972;81;21138;-84
2021/11/26 03:55:15;;;;;;;25.62;14.70;;;;;;;-4.13;100.00;101447.56;1752377;81;21075;-84
2021/11/26 03:57:45;;;;;;;32.30;18.52;;;;;;;-4.10;100.00;101445.88;1756660;81;20953;-83
2021/11/26 04:00:15;;;;;;;27.55;15.90;;;;;;;-4.08;100.00;101437.82;1764912;78;22225;-83
2021/11/26 04:02:46;;;;;;;40.50;16.90;;;;;;;-4.08;100.00;101450.11;1810682;78;21567;-83
2021/11/26 04:05:14;;;;;;;;;;;;;;;-4.05;100.00;101455.20;1812622;79;21093;-83
2021/11/26 04:07:42;;;;;;;34.45;14.83;;;;;;;-3.80;100.00;101451.35;1780988;79;20182;-83
2021/11/26 04:10:11;;;;;;;39.40;15.53;;;;;;;-3.69;100.00;101453.46;1781218;79;20987;-85
2021/11/26 04:12:39;;;;;;;26.35;15.60;;;;;;;-3.60;100.00;101442.39;1810458;79;21097;-83
2021/11/26 04:15:09;;;;;;;32.78;15.75;;;;;;;-3.53;100.00;101442.79;1810322;77;21077;-84
2021/11/26 04:17:38;;;;;;;25.95;15.70;;;;;;;-3.46;100.00;101437.67;1782093;77;21026;-84
2021/11/26 04:20:17;;;;;;;33.20;16.05;;;;;;;-3.43;100.00;101438.50;1820512;78;20961;-84
2021/11/26 04:22:48;;;;;;;24.52;14.58;;;;;;;-3.31;100.00;101433.78;1778673;78;21015;-82
2021/11/26 04:25:18;;;;;;;41.20;18.07;;;;;;;-2.97;100.00;101427.25;1772049;78;21045;-85
2021/11/26 04:27:49;;;;;;;35.45;15.72;;;;;;;-2.65;100.00;101422.38;1809475;79;20975;-83
2021/11/26 04:30:20;;;;;;;33.88;17.50;;;;;;;-2.34;100.00;101423.41;1785211;79;21131;-82
2021/11/26 04:32:49;;;;;;;32.88;15.45;;;;;;;-2.32;100.00;101433.17;1814065;79;20970;-82
2021/11/26 04:35:18;;;;;;;26.48;15.65;;;;;;;-2.40;100.00;101431.12;1783143;79;21009;-82
2021/11/26 04:37:45;;;;;;;46.88;16.65;;;;;;;-2.55;100.00;101434.20;1816918;78;21049;-84
2021/11/26 04:40:15;;;;;;;30.35;17.42;;;;;;;-2.63;100.00;101435.10;1817160;78;21528;-83
2021/11/26 04:42:43;;;;;;;28.23;16.73;;;;;;;-2.52;100.00;101435.05;1778846;79;22084;-84
2021/11/26 04:45:13;;;;;;;38.85;18.70;;;;;;;-2.51;100.00;101435.44;1751059;80;21479;-83
2021/11/26 04:47:41;;;;;;;31.62;17.77;;;;;;;-2.57;100.00;101439.74;1800340;79;21027;-81
2021/11/26 04:50:12;;;;;;;40.00;20.08;;;;;;;-2.64;100.00;101434.27;1770772;79;20995;-91
2021/11/26 04:52:40;;;;;;;37.38;17.48;;;;;;;-2.58;100.00;101453.34;1799869;78;21005;-80
2021/11/26 04:55:10;;;;;;;24.43;14.78;;;;;;;-2.14;100.00;101455.58;1750257;79;21768;-81
2021/11/26 04:57:38;;;;;;;24.02;16.48;;;;;;;-2.03;100.00;101447.37;1768894;79;20909;-81
2021/11/26 05:00:07;;;;;;;24.90;15.50;;;;;;;-2.13;100.00;101450.45;1795867;79;21006;-82
2021/11/26 05:02:35;;;;;;;28.92;16.77;;;;;;;-2.26;100.00;101458.62;1796837;79;21495;-82
2021/11/26 05:05:04;;;;;;;25.37;15.00;;;;;;;-2.36;100.00;101458.28;1797003;79;21052;-80
2021/11/26 05:07:31;;;;;;;27.93;15.93;;;;;;;-2.42;100.00;101455.38;1796959;79;22018;-80
2021/11/26 05:10:02;;;;;;;22.58;14.85;;;;;;;-2.43;100.00;101454.09;1796627;79;21033;-81
2021/11/26 05:12:40;;;;;;;27.80;14.78;;;;;;;-2.45;100.00;101452.83;1790008;78;21054;-83
2021/11/26 05:15:07;;;;;;;26.33;15.55;;;;;;;-2.43;100.00;101445.16;1745158;78;21069;-83
2021/11/26 05:17:36;;;;;;;25.65;15.98;;;;;;;-2.40;100.00;101452.80;1792214;78;21549;-80
2021/11/26 05:20:05;;;;;;;26.68;16.37;;;;;;;-2.40;100.00;101450.25;1793521;78;21138;-82
2021/11/26 05:22:32;;;;;;;27.95;16.50;;;;;;;-2.39;100.00;101451.95;1785913;78;21088;-82
2021/11/26 05:25:00;;;;;;;31.25;17.40;;;;;;;-2.43;100.00;101450.27;1761726;78;21100;-82
2021/11/26 05:27:27;;;;;;;27.87;17.30;;;;;;;-2.47;100.00;101459.64;1764753;78;21084;-82
2021/11/26 05:29:54;;;;;;;29.52;18.27;;;;;;;-2.51;100.00;101455.84;1809971;78;21033;-81
2021/11/26 05:32:50;;;;;;;27.20;17.50;;;;;;;-2.54;100.00;101457.58;1821147;78;21732;-81
2021/11/26 05:35:23;;;;;;;25.70;16.10;;;;;;;-2.51;100.00;101463.50;1691563;84;21096;-82
2021/11/26 05:37:50;;;;;;;22.67;15.18;;;;;;;-2.47;100.00;101463.91;1634088;86;21124;-82
2021/11/26 05:44:30;;;;;;;25.10;15.60;;;;;;;-2.34;100.00;101476.98;1645525;83;21701;-82
2021/11/26 05:46:57;;;;;;;29.92;17.35;;;;;;;-2.27;100.00;101468.42;1678615;83;21162;-82
2021/11/26 05:49:26;;;;;;;39.80;23.20;;;;;;;-2.25;100.00;101466.71;1671610;83;21088;-81
2021/11/26 05:52:01;;;;;;;35.23;21.27;;;;;;;-2.28;100.00;101467.16;1701513;82;21172;-82
2021/11/26 05:58:55;;;;;;;31.07;20.37;;;;;;;-2.44;100.00;101463.45;1709898;83;21096;-81
2021/11/26 06:05:51;;;;;;;32.65;21.45;;;;;;;-2.47;100.00;101467.30;1714140;83;21545;-81
2021/11/26 06:17:02;;;;;;;26.62;18.17;;;;;;;-2.32;100.00;101475.72;1709501;83;21042;-82
2021/11/26 06:32:01;;;;;;;39.53;19.00;;;;;;;-1.72;100.00;101476.88;1657572;86;21140;-82
2021/11/26 06:43:12;;;;;;;30.85;18.77;;;;;;;-1.35;100.00;101467.11;1688214;82;21781;-84
2021/11/26 06:53:16;;;;;;;40.55;19.52;;;;;;;-0.75;100.00;101455.69;1692469;84;22099;-80
2021/11/26 06:55:45;;;;;;;38.30;19.42;;;;;;;-0.39;100.00;101455.98;1701216;83;21157;-81
2021/11/26 06:58:16;;;;;;;46.60;21.00;;;;;;;-0.23;100.00;101461.71;1711637;82;21163;-80
2021/11/26 07:04:49;;;;;;;35.25;20.17;;;;;;;-0.04;100.00;101445.14;1615342;86;21053;-80
2021/11/26 07:07:16;;;;;;;33.13;19.62;;;;;;;0.14;100.00;101447.84;1657924;85;22100;-80
2021/11/26 07:09:44;;;;;;;35.90;20.95;;;;;;;0.33;100.00;101447.92;1692362;83;21500;-81
2021/11/26 07:20:38;;;;;;;35.03;21.48;;;;;;;0.45;100.00;101443.83;1692443;84;21088;-82
2021/11/26 07:31:13;;;;;;;36.98;21.20;;;;;;;0.68;100.00;101421.59;1691824;83;20199;-81
2021/11/26 07:54:38;;;;;;;32.13;20.00;;;;;;;1.39;100.00;101405.89;1708283;83;21018;-80
2021/11/26 08:01:14;;;;;;;31.48;20.52;;;;;;;1.58;100.00;101393.91;1679964;84;21134;-81
2021/11/26 08:03:42;;;;;;;27.62;19.45;;;;;;;1.76;100.00;101386.63;1654921;86;21368;-81
2021/11/26 08:06:09;;;;;;;27.75;20.02;;;;;;;1.80;100.00;101384.36;1718823;82;21031;-81
2021/11/26 08:09:08;;;;;;;29.40;21.30;;;;;;;1.86;100.00;101378.63;1664005;83;21091;-80
2021/11/26 08:16:04;;;;;;;26.35;19.80;;;;;;;1.95;100.00;101376.25;1719089;83;21145;-80
2021/11/26 08:18:33;;;;;;;30.48;21.00;;;;;;;2.03;100.00;101368.34;1718963;83;21074;-80
2021/11/26 08:29:26;;;;;;;29.63;19.42;;;;;;;2.22;100.00;101350.69;1718945;83;21099;-80
2021/11/26 08:32:35;;;;;;;27.17;19.27;;;;;;;2.30;100.00;101345.31;1718685;83;21140;-79
2021/11/26 08:35:04;;;;;;;27.67;19.32;;;;;;;2.30;100.00;101334.60;1719093;82;21162;-80
2021/11/26 08:37:34;;;;;;;27.00;18.50;;;;;;;2.35;100.00;101332.73;1718927;83;21098;-80
2021/11/26 08:40:11;;;;;;;27.95;19.12;;;;;;;2.39;100.00;101329.63;1719079;83;21133;-83
2021/11/26 08:42:55;;;;;;;24.85;18.23;;;;;;;2.47;100.00;101325.09;1710425;83;21043;-80
2021/11/26 09:22:18;;;;;;;24.80;18.02;;;;;;;3.13;100.00;101308.05;1695481;83;21531;-86
2021/11/26 09:37:20;;;;;;;26.42;18.07;;;;;;;3.23;100.00;101288.45;1693356;83;21046;-86
2021/11/26 09:53:23;;;;;;;26.95;19.20;;;;;;;3.61;100.00;101263.93;1629225;86;21126;-86
2021/11/26 10:29:38;;;;;;;38.17;20.52;;;;;;;4.40;100.00;101249.89;1606042;88;21721;-87
2021/11/26 12:11:15;;;;;;;31.77;22.07;;;;;;;3.83;100.00;101173.44;1683963;83;21695;-84
2021/11/26 12:14:11;;;;;;;38.00;23.07;;;;;;;3.83;100.00;101173.44;1713426;83;21119;-85
2021/11/26 12:25:11;;;;;;;36.35;22.35;;;;;;;3.62;100.00;101157.90;1719250;83;21127;-86
2021/11/26 12:31:51;;;;;;;41.77;22.00;;;;;;;3.47;100.00;101158.86;1719277;83;21059;-85
2021/11/26 12:34:21;;;;;;;38.95;22.60;;;;;;;3.44;100.00;101152.98;1718894;82;21544;-85
2021/11/26 12:41:01;;;;;;;35.63;22.82;;;;;;;3.22;100.00;101149.88;1718884;83;21108;-86
2021/11/26 12:56:07;;;;;;;38.65;23.90;;;;;;;2.81;100.00;101165.02;1690071;84;21090;-86
2021/11/26 13:02:47;;;;;;;37.78;23.87;;;;;;;2.80;100.00;101160.34;1719240;83;21122;-85
2021/11/26 13:05:21;;;;;;;35.28;23.85;;;;;;;2.86;100.00;101164.87;1691899;83;21577;-86
2021/11/26 13:07:48;;;;;;;35.60;23.67;;;;;;;2.94;100.00;101169.30;1658229;84;21112;-86
2021/11/26 13:10:23;;;;;;;34.08;23.18;;;;;;;3.02;100.00;101169.88;1692717;83;21537;-86
2021/11/26 13:12:55;;;;;;;35.35;24.27;;;;;;;3.05;100.00;101144.05;1692090;83;21069;-86
2021/11/26 13:15:35;;;;;;;36.63;24.02;;;;;;;3.05;100.00;101144.05;1669893;84;21167;-86
2021/11/26 13:18:16;;;;;;;36.45;24.85;;;;;;;3.00;100.00;101140.82;1675648;84;21074;-86
2021/11/26 13:37:36;;;;;;;62.30;27.35;;;;;;;2.88;100.00;101119.36;1692167;83;21057;-86
2021/11/26 13:40:06;;;;;;;48.02;27.00;;;;;;;2.65;100.00;101121.00;1692238;83;21124;-86
2021/11/26 13:42:34;;;;;;;40.12;26.02;;;;;;;2.53;100.00;101117.11;1692162;84;21068;-86
2021/11/26 13:45:02;;;;;;;44.27;26.80;;;;;;;2.42;100.00;101117.47;1692223;82;21021;-86
2021/11/26 13:47:30;;;;;;;44.18;26.45;;;;;;;2.26;100.00;101121.42;1693692;82;22015;-86
2021/11/26 13:49:58;;;;;;;46.95;28.65;;;;;;;2.12;100.00;101121.43;1692048;84;21077;-86
2021/11/26 13:52:26;;;;;;;44.33;27.77;;;;;;;2.11;100.00;101121.03;1691604;83;21358;-86
2021/11/26 13:54:54;;;;;;;58.05;26.33;;;;;;;2.11;100.00;101135.16;1692138;84;21061;-86
2021/11/26 13:57:27;;;;;;;48.73;26.85;;;;;;;2.13;100.00;101129.51;1692558;84;21089;-85
2021/11/26 14:00:15;;;;;;;46.68;27.90;;;;;;;2.12;100.00;101121.43;1692881;82;21708;-86
2021/11/26 14:02:52;;;;;;;43.68;27.17;;;;;;;2.05;100.00;101114.35;1691834;83;21124;-86
2021/11/26 14:05:39;;;;;;;43.45;27.07;;;;;;;2.00;100.00;101105.92;1691740;83;21034;-86
2021/11/26 14:08:11;;;;;;;43.10;26.68;;;;;;;1.94;100.00;101099.70;1700403;83;21031;-86
2021/11/26 14:10:53;;;;;;;43.90;28.12;;;;;;;1.99;100.00;101104.70;1717937;83;21415;-86
2021/11/26 14:13:22;;;;;;;48.08;30.17;;;;;;;2.00;100.00;101103.81;1709468;82;21177;-86
2021/11/26 14:16:06;;;;;;;46.70;29.60;;;;;;;2.02;100.00;101111.04;1686844;83;21087;-85
2021/11/26 14:18:33;;;;;;;50.38;29.35;;;;;;;2.04;100.00;101119.55;1715423;83;21494;-86
2021/11/26 14:21:10;;;;;;;44.67;29.07;;;;;;;2.17;100.00;101115.69;1715390;82;21091;-87
2021/11/26 14:32:14;;;;;;;54.03;31.90;;;;;;;2.13;100.00;101110.23;1855505;75;22202;-88
2021/11/26 14:34:43;;;;;;;56.33;31.55;;;;;;;2.12;100.00;101121.43;1842731;75;21036;-88
2021/11/26 14:37:10;;;;;;;44.33;27.85;;;;;;;2.18;100.00;101117.38;1859204;77;21155;-87
2021/11/26 14:39:39;;;;;;;47.08;28.27;;;;;;;2.15;100.00;101117.46;1859123;77;21056;-87
2021/11/26 14:42:10;;;;;;;57.55;30.05;;;;;;;2.12;100.00;101111.16;1859226;77;20953;-88
2021/11/26 14:44:47;;;;;;;47.00;28.62;;;;;;;2.11;100.00;101108.19;1859409;76;20949;-87
2021/11/26 14:47:31;;;;;;;48.87;29.67;;;;;;;2.02;100.00;101097.73;1825689;77;20908;-88
2021/11/26 14:50:00;;;;;;;48.33;28.77;;;;;;;1.82;100.00;101087.27;1819757;77;22375;-87
2021/11/26 14:52:32;;;;;;;45.17;27.17;;;;;;;1.67;100.00;101076.58;1857942;75;21459;-88
2021/11/26 14:55:00;;;;;;;47.83;28.85;;;;;;;1.60;100.00;101063.95;1859540;76;21008;-87
2021/11/26 14:57:28;;;;;;;48.87;29.12;;;;;;;1.44;100.00;101056.72;1858706;77;20981;-86
2021/11/26 14:59:57;;;;;;;48.35;28.85;;;;;;;1.31;100.00;101049.83;1828759;76;21044;-87
2021/11/26 15:02:26;;;;;;;56.10;29.18;;;;;;;1.27;100.00;101058.52;1801979;77;21581;-82
2021/11/26 15:04:53;;;;;;;56.65;28.25;;;;;;;1.17;100.00;101060.94;1829217;76;21017;-83
2021/11/26 15:07:25;;;;;;;51.90;29.30;;;;;;;0.96;100.00;101060.67;1859402;77;21560;-82
2021/11/26 15:09:52;;;;;;;50.35;28.70;;;;;;;0.74;100.00;101059.96;1834426;75;21040;-81
2021/11/26 15:12:20;;;;;;;54.08;27.25;;;;;;;0.59;100.00;101068.92;1852525;75;21044;-81
2021/11/26 15:14:49;;;;;;;54.40;27.75;;;;;;;0.47;100.00;101080.75;1831468;75;21045;-82
2021/11/26 15:17:17;;;;;;;47.33;26.97;;;;;;;0.38;100.00;101080.98;1810106;77;20984;-81
2021/11/26 15:19:46;;;;;;;51.80;27.32;;;;;;;0.33;100.00;101083.66;1853365;75;21003;-81
2021/11/26 15:22:13;;;;;;;50.58;26.93;;;;;;;0.25;100.00;101085.56;1849130;75;21040;-81
2021/11/26 15:24:41;;;;;;;48.02;27.27;;;;;;;0.22;100.00;101093.34;1856135;75;21045;-81
2021/11/26 15:27:08;;;;;;;48.10;26.25;;;;;;;0.19;100.00;101103.23;1832861;77;21558;-81
2021/11/26 15:29:35;;;;;;;45.38;26.05;;;;;;;0.18;100.00;101111.79;1858973;77;21048;-81
2021/11/26 15:32:02;;;;;;;42.73;24.40;;;;;;;0.17;100.00;101116.92;1850796;77;20980;-81
2021/11/26 15:34:29;;;;;;;45.03;26.65;;;;;;;0.19;100.00;101124.14;1848555;77;20948;-81
2021/11/26 15:36:56;;;;;;;44.00;25.60;;;;;;;0.19;100.00;101125.42;1846779;76;21121;-82
2021/11/26 15:39:23;;;;;;;46.88;25.97;;;;;;;0.14;100.00;101119.13;1822488;76;21118;-81
2021/11/26 15:41:50;;;;;;;42.95;26.05;;;;;;;0.09;100.00;101114.56;1846733;76;21703;-82
2021/11/26 15:44:19;;;;;;;44.75;26.55;;;;;;;0.04;100.00;101128.75;1846848;77;20979;-80
2021/11/26 15:46:46;;;;;;;41.90;26.35;;;;;;;0.01;100.00;101124.14;1839522;76;21007;-83
2021/11/26 15:49:13;;;;;;;40.67;24.55;;;;;;;-0.02;100.00;101108.41;1840535;77;21552;-81
2021/11/26 15:51:41;;;;;;;49.25;27.60;;;;;;;-0.03;100.00;101103.71;1847784;77;21150;-82
2021/11/26 15:54:09;;;;;;;47.15;27.77;;;;;;;-0.02;100.00;101106.68;1838898;76;20939;-82
2021/11/26 15:56:38;;;;;;;46.35;28.02;;;;;;;-0.03;100.00;101100.32;1839566;76;20991;-82
2021/11/26 15:59:05;;;;;;;44.25;26.87;;;;;;;-0.06;100.00;101096.54;1815130;76;21032;-82
2021/11/26 16:01:32;;;;;;;40.95;25.45;;;;;;;-0.09;100.00;101096.17;1846202;76;21004;-81
2021/11/26 16:04:00;;;;;;;50.45;26.73;;;;;;;-0.13;100.00;101099.70;1848187;76;21144;-82
2021/11/26 16:06:29;;;;;;;44.33;27.90;;;;;;;-0.17;100.00;101105.75;1848001;77;21525;-81
2021/11/26 16:08:58;;;;;;;50.52;26.70;;;;;;;-0.18;100.00;101108.77;1848338;76;21046;-82
2021/11/26 16:11:29;;;;;;;49.38;27.70;;;;;;;-0.22;100.00;101102.02;1847990;77;21054;-81
2021/11/26 16:13:59;;;;;;;43.30;25.92;;;;;;;-0.26;100.00;101099.55;1843700;76;21505;-82
2021/11/26 16:16:26;;;;;;;43.92;25.85;;;;;;;-0.25;100.00;101093.56;1843903;76;21095;-81
2021/11/26 16:18:56;;;;;;;44.83;26.00;;;;;;;-0.24;100.00;101090.13;1847860;77;20999;-82
2021/11/26 16:21:25;;;;;;;43.95;25.43;;;;;;;-0.20;100.00;101088.75;1843042;76;21027;-82
2021/11/26 16:23:54;;;;;;;46.37;27.32;;;;;;;-0.10;100.00;101089.37;1828468;76;21020;-82
2021/11/26 16:26:22;;;;;;;43.48;25.80;;;;;;;-0.03;100.00;101083.23;1847941;77;21000;-82
2021/11/26 16:28:53;;;;;;;43.90;25.00;;;;;;;0.05;100.00;101079.64;1847227;76;21185;-80
2021/11/26 16:37:10;;;;;;;40.17;25.00;;;;;;;0.76;100.00;101057.37;1858670;77;21087;-83
2021/11/26 16:39:28;;;;;;;50.55;25.30;;;;;;;0.90;100.00;101061.68;1851022;77;21056;-82
2021/11/26 16:41:56;;;;;;;47.80;25.55;;;;;;;0.92;100.00;101066.76;1858600;77;21989;-83
2021/11/26 16:44:24;;;;;;;70.55;27.93;;;;;;;0.89;100.00;101060.00;1858571;77;21088;-87
2021/11/26 16:46:53;;;;;;;46.92;25.80;;;;;;;0.92;100.00;101059.89;1858140;75;21495;-87
2021/11/26 16:49:24;;;;;;;46.13;25.25;;;;;;;1.14;100.00;101050.75;1856923;77;21043;-85
2021/11/26 16:51:55;;;;;;;45.75;23.42;;;;;;;1.40;100.00;101052.59;1857066;77;21504;-86
2021/11/26 16:54:27;;;;;;;69.25;27.45;;;;;;;1.60;100.00;101054.98;1825792;77;21121;-87
2021/11/26 16:56:54;;;;;;;44.48;25.27;;;;;;;1.70;100.00;101039.69;1856874;76;21039;-81
2021/11/26 16:59:21;;;;;;;44.70;24.92;;;;;;;1.70;100.00;101037.95;1855962;76;21054;-81
2021/11/26 17:01:49;;;;;;;46.20;25.92;;;;;;;1.49;100.00;101041.19;1851083;75;21008;-82
2021/11/26 17:04:17;;;;;;;45.28;25.52;;;;;;;1.29;100.00;101035.38;1844142;75;21068;-81
2021/11/26 17:06:48;;;;;;;44.27;25.77;;;;;;;1.15;100.00;101026.79;1827870;77;21044;-81
2021/11/26 17:09:17;;;;;;;51.68;25.82;;;;;;;1.03;100.00;101025.42;1852523;75;21067;-82
2021/11/26 17:11:45;;;;;;;53.38;25.82;;;;;;;0.94;100.00;101017.10;1847979;77;21333;-81
2021/11/26 17:14:15;;;;;;;49.60;26.97;;;;;;;0.91;100.00;101018.49;1841659;76;21058;-82
2021/11/26 17:16:44;;;;;;;46.65;24.50;;;;;;;0.87;100.00;101013.03;1852189;77;21002;-82
2021/11/26 17:19:11;;;;;;;41.77;23.65;;;;;;;0.83;100.00;101007.61;1821040;75;21498;-81
2021/11/26 17:21:39;;;;;;;46.33;24.32;;;;;;;0.85;100.00;101015.25;1823408;77;21024;-82
2021/11/26 17:24:09;;;;;;;42.05;23.60;;;;;;;0.83;100.00;101015.30;1824758;78;20994;-82
2021/11/26 17:26:38;;;;;;;48.90;26.00;;;;;;;0.83;100.00;101015.73;1832699;75;21515;-82